sensor_id;sensor_type;location;lat;lon;timestamp;pressure;altitude;pressure_sealevel;temperature;humidity
1401;BME280;46518;48.842;8.926;2023-05-16T00:02:25;96803.22;;;12.57;90.38
1401;BME280;46518;48.842;8.926;2023-05-16T00:04:54;96810.59;;;12.70;90.99
1401;BME280;46518;48.842;8.926;2023-05-16T00:07:22;96804.53;;;12.60;91.38
1401;BME280;46518;48.842;8.926;2023-05-16T00:09:50;96805.59;;;12.54;91.89
1401;BME280;46518;48.842;8.926;2023-05-16T00:12:18;96800.31;;;12.33;93.76
1401;BME280;46518;48.842;8.926;2023-05-16T00:14:49;96805.84;;;12.26;94.74
1401;BME280;46518;48.842;8.926;2023-05-16T00:17:18;96812.44;;;12.19;96.88
1401;BME280;46518;48.842;8.926;2023-05-16T00:19:47;96802.94;;;12.13;98.20
1401;BME280;46518;48.842;8.926;2023-05-16T00:22:15;96803.72;;;12.08;98.43
1401;BME280;46518;48.842;8.926;2023-05-16T00:24:44;96800.03;;;12.09;98.53
1401;BME280;46518;48.842;8.926;2023-05-16T00:27:12;96792.38;;;11.97;99.26
1401;BME280;46518;48.842;8.926;2023-05-16T00:29:41;96796.59;;;11.98;100.00
1401;BME280;46518;48.842;8.926;2023-05-16T00:32:10;96798.97;;;12.00;99.19
1401;BME280;46518;48.842;8.926;2023-05-16T00:34:39;96798.16;;;11.94;99.39
1401;BME280;46518;48.842;8.926;2023-05-16T00:37:07;96797.09;;;11.95;99.79
1401;BME280;46518;48.842;8.926;2023-05-16T00:39:36;96802.66;;;11.89;99.35
1401;BME280;46518;48.842;8.926;2023-05-16T00:42:04;96793.63;;;11.84;100.00
1401;BME280;46518;48.842;8.926;2023-05-16T00:44:32;96789.91;;;11.75;100.00
1401;BME280;46518;48.842;8.926;2023-05-16T00:47:01;96799.69;;;11.75;100.00
1401;BME280;46518;48.842;8.926;2023-05-16T00:49:31;96792.03;;;11.73;100.00
1401;BME280;46518;48.842;8.926;2023-05-16T00:52:00;96795.44;;;11.69;100.00
1401;BME280;46518;48.842;8.926;2023-05-16T00:54:29;96797.53;;;11.61;100.00
1401;BME280;46518;48.842;8.926;2023-05-16T00:56:57;96805.19;;;11.68;100.00
1401;BME280;46518;48.842;8.926;2023-05-16T00:59:26;96803.38;;;11.69;100.00
1401;BME280;46518;48.842;8.926;2023-05-16T01:01:54;96815.72;;;11.68;100.00
1401;BME280;46518;48.842;8.926;2023-05-16T01:04:23;96808.06;;;11.56;100.00
1401;BME280;46518;48.842;8.926;2023-05-16T01:06:55;96799.59;;;11.44;100.00
1401;BME280;46518;48.842;8.926;2023-05-16T01:09:23;96814.09;;;11.47;100.00
1401;BME280;46518;48.842;8.926;2023-05-16T01:11:55;96804.56;;;11.40;100.00
1401;BME280;46518;48.842;8.926;2023-05-16T01:14:36;96807.75;;;11.42;100.00
1401;BME280;46518;48.842;8.926;2023-05-16T01:17:09;96811.19;;;11.48;100.00
1401;BME280;46518;48.842;8.926;2023-05-16T01:19:52;96809.34;;;11.43;100.00
1401;BME280;46518;48.842;8.926;2023-05-16T01:22:28;96803.84;;;11.60;99.93
1401;BME280;46518;48.842;8.926;2023-05-16T01:25:05;96809.66;;;11.62;99.24
1401;BME280;46518;48.842;8.926;2023-05-16T01:27:37;96811.25;;;11.63;98.45
1401;BME280;46518;48.842;8.926;2023-05-16T01:30:13;96814.34;;;11.45;99.60
1401;BME280;46518;48.842;8.926;2023-05-16T01:32:43;96803.31;;;11.53;99.33
1401;BME280;46518;48.842;8.926;2023-05-16T01:35:14;96814.38;;;11.55;99.00
1401;BME280;46518;48.842;8.926;2023-05-16T01:37:49;96812.78;;;11.49;98.93
1401;BME280;46518;48.842;8.926;2023-05-16T01:40:25;96815.13;;;11.45;99.17
1401;BME280;46518;48.842;8.926;2023-05-16T01:42:59;96812.50;;;11.45;100.00
1401;BME280;46518;48.842;8.926;2023-05-16T01:45:33;96806.94;;;11.37;99.75
1401;BME280;46518;48.842;8.926;2023-05-16T01:48:07;96811.13;;;11.38;100.00
1401;BME280;46518;48.842;8.926;2023-05-16T01:50:40;96812.75;;;11.44;100.00
1401;BME280;46518;48.842;8.926;2023-05-16T01:53:14;96807.75;;;11.42;99.94
1401;BME280;46518;48.842;8.926;2023-05-16T01:55:45;96815.66;;;11.48;99.12
1401;BME280;46518;48.842;8.926;2023-05-16T01:58:19;96807.47;;;11.39;99.41
1401;BME280;46518;48.842;8.926;2023-05-16T02:00:48;96808.75;;;11.31;100.00
1401;BME280;46518;48.842;8.926;2023-05-16T02:03:16;96815.16;;;11.51;99.67
1401;BME280;46518;48.842;8.926;2023-05-16T02:05:45;96815.97;;;11.51;99.48
1401;BME280;46518;48.842;8.926;2023-05-16T02:08:13;96810.94;;;11.50;99.61
1401;BME280;46518;48.842;8.926;2023-05-16T02:10:42;96814.88;;;11.47;100.00
1401;BME280;46518;48.842;8.926;2023-05-16T02:13:10;96821.78;;;11.53;100.00
1401;BME280;46518;48.842;8.926;2023-05-16T02:15:40;96824.13;;;11.55;100.00
1401;BME280;46518;48.842;8.926;2023-05-16T02:18:08;96830.75;;;11.62;100.00
1401;BME280;46518;48.842;8.926;2023-05-16T02:20:37;96824.66;;;11.57;99.98
1401;BME280;46518;48.842;8.926;2023-05-16T02:23:05;96835.00;;;11.69;100.00
1401;BME280;46518;48.842;8.926;2023-05-16T02:25:34;96835.00;;;11.69;99.32
1401;BME280;46518;48.842;8.926;2023-05-16T02:28:02;96826.59;;;11.82;99.35
1401;BME280;46518;48.842;8.926;2023-05-16T02:30:30;96827.91;;;11.79;99.18
1401;BME280;46518;48.842;8.926;2023-05-16T02:33:00;96825.78;;;11.76;98.99
1401;BME280;46518;48.842;8.926;2023-05-16T02:35:29;96816.78;;;11.62;98.99
1401;BME280;46518;48.842;8.926;2023-05-16T02:37:59;96834.25;;;11.83;99.33
1401;BME280;46518;48.842;8.926;2023-05-16T02:40:27;96832.19;;;11.96;99.25
1401;BME280;46518;48.842;8.926;2023-05-16T02:42:55;96838.78;;;11.93;98.32
1401;BME280;46518;48.842;8.926;2023-05-16T02:45:24;96834.84;;;11.96;97.93
1401;BME280;46518;48.842;8.926;2023-05-16T02:47:53;96828.50;;;11.97;97.95
1401;BME280;46518;48.842;8.926;2023-05-16T02:50:23;96828.50;;;11.92;97.95
1401;BME280;46518;48.842;8.926;2023-05-16T02:52:51;96833.75;;;11.92;98.38
1401;BME280;46518;48.842;8.926;2023-05-16T02:55:19;96834.69;;;11.60;100.00
1401;BME280;46518;48.842;8.926;2023-05-16T02:57:48;96820.97;;;11.58;100.00
1401;BME280;46518;48.842;8.926;2023-05-16T03:00:18;96827.25;;;11.47;100.00
1401;BME280;46518;48.842;8.926;2023-05-16T03:02:46;96825.16;;;11.49;100.00
1401;BME280;46518;48.842;8.926;2023-05-16T03:05:15;96827.56;;;11.55;100.00
1401;BME280;46518;48.842;8.926;2023-05-16T03:07:45;96839.69;;;11.51;100.00
1401;BME280;46518;48.842;8.926;2023-05-16T03:10:13;96832.84;;;11.60;100.00
1401;BME280;46518;48.842;8.926;2023-05-16T03:12:42;96830.69;;;11.47;100.00
1401;BME280;46518;48.842;8.926;2023-05-16T03:15:11;96838.59;;;11.47;100.00
1401;BME280;46518;48.842;8.926;2023-05-16T03:17:39;96836.00;;;11.57;100.00
1401;BME280;46518;48.842;8.926;2023-05-16T03:20:09;96831.47;;;11.42;100.00
1401;BME280;46518;48.842;8.926;2023-05-16T03:22:38;96844.41;;;11.49;100.00
1401;BME280;46518;48.842;8.926;2023-05-16T03:25:08;96840.69;;;11.45;100.00
1401;BME280;46518;48.842;8.926;2023-05-16T03:27:40;96837.03;;;11.51;100.00
1401;BME280;46518;48.842;8.926;2023-05-16T03:30:08;96840.47;;;11.57;100.00
1401;BME280;46518;48.842;8.926;2023-05-16T03:32:37;96836.78;;;11.58;100.00
1401;BME280;46518;48.842;8.926;2023-05-16T03:35:05;96837.56;;;11.53;100.00
1401;BME280;46518;48.842;8.926;2023-05-16T03:37:34;96839.84;;;11.34;100.00
1401;BME280;46518;48.842;8.926;2023-05-16T03:40:03;96835.72;;;11.54;100.00
1401;BME280;46518;48.842;8.926;2023-05-16T03:42:33;96844.97;;;11.56;100.00
1401;BME280;46518;48.842;8.926;2023-05-16T03:45:01;96840.97;;;11.49;100.00
1401;BME280;46518;48.842;8.926;2023-05-16T03:47:30;96840.47;;;11.52;100.00
1401;BME280;46518;48.842;8.926;2023-05-16T03:49:58;96845.00;;;11.66;100.00
1401;BME280;46518;48.842;8.926;2023-05-16T03:52:26;96842.38;;;11.66;100.00
1401;BME280;46518;48.842;8.926;2023-05-16T03:54:54;96848.94;;;11.59;100.00
1401;BME280;46518;48.842;8.926;2023-05-16T03:57:23;96840.47;;;11.57;100.00
1401;BME280;46518;48.842;8.926;2023-05-16T03:59:52;96839.66;;;11.46;100.00
1401;BME280;46518;48.842;8.926;2023-05-16T04:02:20;96838.84;;;11.45;100.00
1401;BME280;46518;48.842;8.926;2023-05-16T04:04:49;96845.66;;;11.31;100.00
1401;BME280;46518;48.842;8.926;2023-05-16T04:07:17;96847.81;;;11.44;100.00
1401;BME280;46518;48.842;8.926;2023-05-16T04:09:49;96840.16;;;11.48;100.00
1401;BME280;46518;48.842;8.926;2023-05-16T04:12:18;96854.91;;;11.39;100.00
1401;BME280;46518;48.842;8.926;2023-05-16T04:14:46;96844.09;;;11.40;100.00
1401;BME280;46518;48.842;8.926;2023-05-16T04:17:15;96851.72;;;11.37;100.00
1401;BME280;46518;48.842;8.926;2023-05-16T04:19:43;96849.63;;;11.39;100.00
1401;BME280;46518;48.842;8.926;2023-05-16T04:22:12;96855.47;;;11.46;100.00
1401;BME280;46518;48.842;8.926;2023-05-16T04:24:40;96845.41;;;11.43;100.00
1401;BME280;46518;48.842;8.926;2023-05-16T04:27:08;96848.91;;;11.54;100.00
1401;BME280;46518;48.842;8.926;2023-05-16T04:29:37;96856.03;;;11.53;100.00
1401;BME280;46518;48.842;8.926;2023-05-16T04:32:06;96847.16;;;11.22;100.00
1401;BME280;46518;48.842;8.926;2023-05-16T04:34:36;96842.69;;;11.22;100.00
1401;BME280;46518;48.842;8.926;2023-05-16T04:37:06;96856.38;;;11.19;100.00
1401;BME280;46518;48.842;8.926;2023-05-16T04:39:35;96859.19;;;11.08;100.00
1401;BME280;46518;48.842;8.926;2023-05-16T04:42:04;96860.91;;;11.29;100.00
1401;BME280;46518;48.842;8.926;2023-05-16T04:44:32;96861.16;;;11.28;100.00
1401;BME280;46518;48.842;8.926;2023-05-16T04:47:00;96866.97;;;11.30;100.00
1401;BME280;46518;48.842;8.926;2023-05-16T04:49:28;96860.13;;;11.29;100.00
1401;BME280;46518;48.842;8.926;2023-05-16T04:51:58;96865.66;;;11.32;100.00
1401;BME280;46518;48.842;8.926;2023-05-16T04:54:26;96871.75;;;11.38;100.00
1401;BME280;46518;48.842;8.926;2023-05-16T04:56:54;96873.06;;;11.40;100.00
1401;BME280;46518;48.842;8.926;2023-05-16T04:59:23;96872.84;;;11.47;100.00
1401;BME280;46518;48.842;8.926;2023-05-16T05:01:51;96877.56;;;11.45;100.00
1401;BME280;46518;48.842;8.926;2023-05-16T05:04:20;96876.81;;;11.50;100.00
1401;BME280;46518;48.842;8.926;2023-05-16T05:06:49;96878.88;;;11.42;100.00
1401;BME280;46518;48.842;8.926;2023-05-16T05:09:18;96885.97;;;11.37;100.00
1401;BME280;46518;48.842;8.926;2023-05-16T05:11:47;96893.94;;;11.47;100.00
1401;BME280;46518;48.842;8.926;2023-05-16T05:14:15;96891.06;;;11.54;100.00
1401;BME280;46518;48.842;8.926;2023-05-16T05:16:43;96888.97;;;11.56;100.00
1401;BME280;46518;48.842;8.926;2023-05-16T05:19:11;96898.19;;;11.53;100.00
1401;BME280;46518;48.842;8.926;2023-05-16T05:21:39;96896.06;;;11.55;100.00
1401;BME280;46518;48.842;8.926;2023-05-16T05:24:07;96899.16;;;11.37;100.00
1401;BME280;46518;48.842;8.926;2023-05-16T05:26:37;96907.09;;;11.47;100.00
1401;BME280;46518;48.842;8.926;2023-05-16T05:29:05;96905.59;;;11.61;100.00
1401;BME280;46518;48.842;8.926;2023-05-16T05:31:33;96913.00;;;11.70;100.00
1401;BME280;46518;48.842;8.926;2023-05-16T05:34:02;96908.53;;;11.70;100.00
1401;BME280;46518;48.842;8.926;2023-05-16T05:36:30;96904.06;;;11.71;100.00
1401;BME280;46518;48.842;8.926;2023-05-16T05:38:58;96908.53;;;11.70;100.00
1401;BME280;46518;48.842;8.926;2023-05-16T05:41:26;96908.56;;;11.80;100.00
1401;BME280;46518;48.842;8.926;2023-05-16T05:43:56;96909.88;;;11.78;100.00
1401;BME280;46518;48.842;8.926;2023-05-16T05:46:24;96913.81;;;11.70;100.00
1401;BME280;46518;48.842;8.926;2023-05-16T05:48:53;96912.00;;;11.76;100.00
1401;BME280;46518;48.842;8.926;2023-05-16T05:51:21;96913.31;;;11.73;100.00
1401;BME280;46518;48.842;8.926;2023-05-16T05:53:49;96915.91;;;11.68;100.00
1401;BME280;46518;48.842;8.926;2023-05-16T05:56:18;96915.38;;;11.61;100.00
1401;BME280;46518;48.842;8.926;2023-05-16T05:58:47;96910.38;;;11.70;100.00
1401;BME280;46518;48.842;8.926;2023-05-16T06:01:17;96916.19;;;11.72;100.00
1401;BME280;46518;48.842;8.926;2023-05-16T06:03:46;96916.94;;;11.62;100.00
1401;BME280;46518;48.842;8.926;2023-05-16T06:06:16;96919.31;;;11.58;100.00
1401;BME280;46518;48.842;8.926;2023-05-16T06:08:44;96910.84;;;11.56;100.00
1401;BME280;46518;48.842;8.926;2023-05-16T06:11:12;96915.63;;;11.64;100.00
1401;BME280;46518;48.842;8.926;2023-05-16T06:13:40;96914.06;;;11.63;100.00
1401;BME280;46518;48.842;8.926;2023-05-16T06:16:08;96915.09;;;11.62;100.00
1401;BME280;46518;48.842;8.926;2023-05-16T06:18:38;96925.38;;;11.59;100.00
1401;BME280;46518;48.842;8.926;2023-05-16T06:21:06;96928.25;;;11.57;100.00
1401;BME280;46518;48.842;8.926;2023-05-16T06:23:34;96933.53;;;11.62;100.00
1401;BME280;46518;48.842;8.926;2023-05-16T06:26:03;96936.66;;;11.54;100.00
1401;BME280;46518;48.842;8.926;2023-05-16T06:28:31;96934.75;;;11.44;100.00
1401;BME280;46518;48.842;8.926;2023-05-16T06:30:59;96930.31;;;11.50;100.00
1401;BME280;46518;48.842;8.926;2023-05-16T06:33:27;96940.41;;;11.63;100.00
1401;BME280;46518;48.842;8.926;2023-05-16T06:35:57;96943.31;;;11.67;100.00
1401;BME280;46518;48.842;8.926;2023-05-16T06:38:25;96945.19;;;11.72;100.00
1401;BME280;46518;48.842;8.926;2023-05-16T06:40:53;96940.97;;;11.71;100.00
1401;BME280;46518;48.842;8.926;2023-05-16T06:43:21;96950.41;;;11.61;100.00
1401;BME280;46518;48.842;8.926;2023-05-16T06:45:49;96946.94;;;11.51;100.00
1401;BME280;46518;48.842;8.926;2023-05-16T06:48:18;96952.66;;;11.42;100.00
1401;BME280;46518;48.842;8.926;2023-05-16T06:50:47;96945.22;;;11.29;100.00
1401;BME280;46518;48.842;8.926;2023-05-16T06:53:16;96938.47;;;11.06;100.00
1401;BME280;46518;48.842;8.926;2023-05-16T06:55:45;96943.47;;;11.08;100.00
1401;BME280;46518;48.842;8.926;2023-05-16T06:58:14;96945.34;;;11.12;100.00
1401;BME280;46518;48.842;8.926;2023-05-16T07:00:42;96950.38;;;11.14;100.00
1401;BME280;46518;48.842;8.926;2023-05-16T07:03:11;96957.72;;;11.12;100.00
1401;BME280;46518;48.842;8.926;2023-05-16T07:05:40;96952.25;;;11.18;100.00
1401;BME280;46518;48.842;8.926;2023-05-16T07:08:08;96953.31;;;11.22;100.00
1401;BME280;46518;48.842;8.926;2023-05-16T07:10:39;96958.00;;;11.15;100.00
1401;BME280;46518;48.842;8.926;2023-05-16T07:13:07;96953.25;;;11.12;100.00
1401;BME280;46518;48.842;8.926;2023-05-16T07:15:35;96954.34;;;11.16;100.00
1401;BME280;46518;48.842;8.926;2023-05-16T07:18:04;96961.94;;;11.13;100.00
1401;BME280;46518;48.842;8.926;2023-05-16T07:20:32;96966.34;;;11.02;100.00
1401;BME280;46518;48.842;8.926;2023-05-16T07:23:00;96970.47;;;10.93;100.00
1401;BME280;46518;48.842;8.926;2023-05-16T07:25:29;96970.78;;;10.96;100.00
1401;BME280;46518;48.842;8.926;2023-05-16T07:27:58;96972.78;;;10.84;100.00
1401;BME280;46518;48.842;8.926;2023-05-16T07:30:27;96971.69;;;10.80;100.00
1401;BME280;46518;48.842;8.926;2023-05-16T07:32:55;96977.00;;;10.85;100.00
1401;BME280;46518;48.842;8.926;2023-05-16T07:35:23;96980.31;;;10.75;100.00
1401;BME280;46518;48.842;8.926;2023-05-16T07:37:52;96978.50;;;10.76;100.00
1401;BME280;46518;48.842;8.926;2023-05-16T07:40:20;96977.00;;;10.85;100.00
1401;BME280;46518;48.842;8.926;2023-05-16T07:42:51;96985.06;;;10.73;100.00
1401;BME280;46518;48.842;8.926;2023-05-16T07:45:21;96982.03;;;10.60;100.00
1401;BME280;46518;48.842;8.926;2023-05-16T07:47:49;96988.72;;;10.45;100.00
1401;BME280;46518;48.842;8.926;2023-05-16T07:50:17;96992.38;;;10.66;100.00
1401;BME280;46518;48.842;8.926;2023-05-16T07:52:46;96988.06;;;10.60;100.00
1401;BME280;46518;48.842;8.926;2023-05-16T07:55:14;96992.56;;;10.60;100.00
1401;BME280;46518;48.842;8.926;2023-05-16T07:57:43;96988.72;;;10.72;100.00
1401;BME280;46518;48.842;8.926;2023-05-16T08:00:12;96996.06;;;10.70;100.00
1401;BME280;46518;48.842;8.926;2023-05-16T08:02:42;96986.03;;;10.67;100.00
1401;BME280;46518;48.842;8.926;2023-05-16T08:05:10;96995.69;;;10.84;100.00
1401;BME280;46518;48.842;8.926;2023-05-16T08:07:38;96990.47;;;10.89;100.00
1401;BME280;46518;48.842;8.926;2023-05-16T08:10:07;96995.72;;;10.89;100.00
1401;BME280;46518;48.842;8.926;2023-05-16T08:12:39;96998.91;;;10.91;100.00
1401;BME280;46518;48.842;8.926;2023-05-16T08:15:08;96996.81;;;10.93;100.00
1401;BME280;46518;48.842;8.926;2023-05-16T08:17:36;96993.78;;;11.06;100.00
1401;BME280;46518;48.842;8.926;2023-05-16T08:20:07;96997.72;;;11.04;100.00
1401;BME280;46518;48.842;8.926;2023-05-16T08:22:36;96992.47;;;11.09;100.00
1401;BME280;46518;48.842;8.926;2023-05-16T08:25:05;96998.78;;;11.08;100.00
1401;BME280;46518;48.842;8.926;2023-05-16T08:27:36;96991.50;;;11.20;100.00
1401;BME280;46518;48.842;8.926;2023-05-16T08:30:05;96998.34;;;11.16;100.00
1401;BME280;46518;48.842;8.926;2023-05-16T08:32:34;96996.09;;;11.02;100.00
1401;BME280;46518;48.842;8.926;2023-05-16T08:35:03;96997.16;;;11.01;100.00
1401;BME280;46518;48.842;8.926;2023-05-16T08:37:33;96991.78;;;11.18;100.00
1401;BME280;46518;48.842;8.926;2023-05-16T08:40:03;96993.97;;;10.99;100.00
1401;BME280;46518;48.842;8.926;2023-05-16T08:42:34;96995.34;;;11.07;100.00
1401;BME280;46518;48.842;8.926;2023-05-16T08:45:04;97006.56;;;11.25;100.00
1401;BME280;46518;48.842;8.926;2023-05-16T08:47:32;97011.63;;;11.31;100.00
1401;BME280;46518;48.842;8.926;2023-05-16T08:50:03;97002.47;;;11.39;100.00
1401;BME280;46518;48.842;8.926;2023-05-16T08:52:34;97008.19;;;11.31;100.00
1401;BME280;46518;48.842;8.926;2023-05-16T08:55:06;97002.50;;;11.12;100.00
1401;BME280;46518;48.842;8.926;2023-05-16T08:57:38;97013.50;;;11.36;100.00
1401;BME280;46518;48.842;8.926;2023-05-16T09:00:07;97005.84;;;11.34;100.00
1401;BME280;46518;48.842;8.926;2023-05-16T09:02:39;97009.34;;;11.45;100.00
1401;BME280;46518;48.842;8.926;2023-05-16T09:05:11;97010.25;;;11.61;100.00
1401;BME280;46518;48.842;8.926;2023-05-16T09:07:41;97010.78;;;11.63;100.00
1401;BME280;46518;48.842;8.926;2023-05-16T09:10:10;97014.75;;;11.65;100.00
1401;BME280;46518;48.842;8.926;2023-05-16T09:12:39;97009.56;;;11.76;100.00
1401;BME280;46518;48.842;8.926;2023-05-16T09:15:09;97014.41;;;11.94;100.00
1401;BME280;46518;48.842;8.926;2023-05-16T09:17:39;97006.47;;;11.89;100.00
1401;BME280;46518;48.842;8.926;2023-05-16T09:20:10;97013.50;;;11.73;100.00
1401;BME280;46518;48.842;8.926;2023-05-16T09:22:39;97014.31;;;11.79;100.00
1401;BME280;46518;48.842;8.926;2023-05-16T09:25:15;97014.56;;;11.77;100.00
1401;BME280;46518;48.842;8.926;2023-05-16T09:27:55;97017.22;;;11.82;100.00
1401;BME280;46518;48.842;8.926;2023-05-16T09:30:27;97030.66;;;11.76;100.00
1401;BME280;46518;48.842;8.926;2023-05-16T09:32:56;97019.19;;;11.60;100.00
1401;BME280;46518;48.842;8.926;2023-05-16T09:35:25;97023.94;;;11.63;100.00
1401;BME280;46518;48.842;8.926;2023-05-16T09:38:14;97020.38;;;11.79;100.00
1401;BME280;46518;48.842;8.926;2023-05-16T09:40:44;97022.09;;;11.96;100.00
1401;BME280;46518;48.842;8.926;2023-05-16T09:43:14;97023.56;;;11.81;100.00
1401;BME280;46518;48.842;8.926;2023-05-16T09:45:47;97021.06;;;11.64;100.00
1401;BME280;46518;48.842;8.926;2023-05-16T09:48:16;97020.78;;;11.61;100.00
1401;BME280;46518;48.842;8.926;2023-05-16T09:50:46;97013.13;;;11.59;100.00
1401;BME280;46518;48.842;8.926;2023-05-16T09:53:15;97018.97;;;11.66;100.00
1401;BME280;46518;48.842;8.926;2023-05-16T09:55:45;97018.38;;;11.54;100.00
1401;BME280;46518;48.842;8.926;2023-05-16T09:58:16;97018.88;;;11.51;100.00
1401;BME280;46518;48.842;8.926;2023-05-16T10:00:45;97017.06;;;11.57;100.00
1401;BME280;46518;48.842;8.926;2023-05-16T10:03:14;97020.63;;;11.78;100.00
1401;BME280;46518;48.842;8.926;2023-05-16T10:05:42;97029.56;;;11.72;100.00
1401;BME280;46518;48.842;8.926;2023-05-16T10:08:11;97026.88;;;11.66;100.00
1401;BME280;46518;48.842;8.926;2023-05-16T10:10:40;97025.72;;;11.52;100.00
1401;BME280;46518;48.842;8.926;2023-05-16T10:13:11;97019.63;;;11.47;100.00
1401;BME280;46518;48.842;8.926;2023-05-16T10:15:40;97012.22;;;11.38;100.00
1401;BME280;46518;48.842;8.926;2023-05-16T10:18:09;97017.72;;;11.37;100.00
1401;BME280;46518;48.842;8.926;2023-05-16T10:20:41;97017.28;;;11.50;100.00
1401;BME280;46518;48.842;8.926;2023-05-16T10:23:15;97023.09;;;11.52;100.00
1401;BME280;46518;48.842;8.926;2023-05-16T10:25:45;97031.47;;;11.44;100.00
1401;BME280;46518;48.842;8.926;2023-05-16T10:28:15;97034.44;;;11.53;100.00
1401;BME280;46518;48.842;8.926;2023-05-16T10:30:45;97025.19;;;11.50;100.00
1401;BME280;46518;48.842;8.926;2023-05-16T10:33:15;97024.97;;;11.57;100.00
1401;BME280;46518;48.842;8.926;2023-05-16T10:35:44;97027.91;;;11.65;100.00
1401;BME280;46518;48.842;8.926;2023-05-16T10:38:15;97025.38;;;11.76;100.00
1401;BME280;46518;48.842;8.926;2023-05-16T10:40:45;97030.63;;;11.71;100.00
1401;BME280;46518;48.842;8.926;2023-05-16T10:43:23;97029.78;;;11.70;100.00
1401;BME280;46518;48.842;8.926;2023-05-16T10:45:56;97029.88;;;11.85;100.00
1401;BME280;46518;48.842;8.926;2023-05-16T10:48:29;97032.06;;;11.89;100.00
1401;BME280;46518;48.842;8.926;2023-05-16T10:51:00;97028.78;;;11.71;100.00
1401;BME280;46518;48.842;8.926;2023-05-16T10:53:31;97031.66;;;11.70;100.00
1401;BME280;46518;48.842;8.926;2023-05-16T10:56:08;97043.19;;;11.58;100.00
1401;BME280;46518;48.842;8.926;2023-05-16T10:58:43;97038.09;;;11.47;100.00
1401;BME280;46518;48.842;8.926;2023-05-16T11:01:22;97033.31;;;11.43;100.00
1401;BME280;46518;48.842;8.926;2023-05-16T11:04:08;97041.47;;;11.42;100.00
1401;BME280;46518;48.842;8.926;2023-05-16T11:06:46;97040.81;;;11.62;100.00
1401;BME280;46518;48.842;8.926;2023-05-16T11:09:24;97042.44;;;11.68;100.00
1401;BME280;46518;48.842;8.926;2023-05-16T11:11:58;97046.50;;;11.81;100.00
1401;BME280;46518;48.842;8.926;2023-05-16T11:14:35;97048.13;;;11.87;100.00
1401;BME280;46518;48.842;8.926;2023-05-16T11:17:09;97042.78;;;11.82;100.00
1401;BME280;46518;48.842;8.926;2023-05-16T11:19:42;97050.69;;;11.77;100.00
1401;BME280;46518;48.842;8.926;2023-05-16T11:22:28;97053.44;;;11.92;100.00
1401;BME280;46518;48.842;8.926;2023-05-16T11:25:00;97060.69;;;11.75;100.00
1401;BME280;46518;48.842;8.926;2023-05-16T11:27:30;97062.03;;;11.82;99.23
1401;BME280;46518;48.842;8.926;2023-05-16T11:30:09;97060.25;;;11.88;99.72
1401;BME280;46518;48.842;8.926;2023-05-16T11:32:41;97057.25;;;12.12;98.58
1401;BME280;46518;48.842;8.926;2023-05-16T11:35:11;97057.72;;;12.03;98.53
1401;BME280;46518;48.842;8.926;2023-05-16T11:37:41;97060.50;;;12.34;97.55
1401;BME280;46518;48.842;8.926;2023-05-16T11:40:11;97057.91;;;12.39;96.51
1401;BME280;46518;48.842;8.926;2023-05-16T11:42:41;97066.63;;;12.45;95.69
1401;BME280;46518;48.842;8.926;2023-05-16T11:45:14;97057.16;;;12.49;94.48
1401;BME280;46518;48.842;8.926;2023-05-16T11:47:45;97065.69;;;12.14;94.69
1401;BME280;46518;48.842;8.926;2023-05-16T11:50:16;97066.69;;;12.02;94.62
1401;BME280;46518;48.842;8.926;2023-05-16T11:52:47;97069.06;;;12.04;95.39
1401;BME280;46518;48.842;8.926;2023-05-16T11:55:16;97058.81;;;12.13;94.76
1401;BME280;46518;48.842;8.926;2023-05-16T11:58:05;97075.25;;;12.30;94.99
1401;BME280;46518;48.842;8.926;2023-05-16T12:00:35;97070.03;;;12.45;93.64
1401;BME280;46518;48.842;8.926;2023-05-16T12:03:03;97063.72;;;12.46;93.88
1401;BME280;46518;48.842;8.926;2023-05-16T12:05:32;97078.78;;;12.46;90.97
1401;BME280;46518;48.842;8.926;2023-05-16T12:08:02;97081.06;;;12.27;90.05
1401;BME280;46518;48.842;8.926;2023-05-16T12:10:31;97079.19;;;12.22;90.04
1401;BME280;46518;48.842;8.926;2023-05-16T12:13:02;97075.22;;;12.20;91.67
1401;BME280;46518;48.842;8.926;2023-05-16T12:15:31;97079.31;;;12.00;92.72
1401;BME280;46518;48.842;8.926;2023-05-16T12:18:01;97086.38;;;11.57;93.75
1401;BME280;46518;48.842;8.926;2023-05-16T12:20:30;97089.88;;;11.31;94.86
1401;BME280;46518;48.842;8.926;2023-05-16T12:22:59;97091.88;;;11.18;96.49
1401;BME280;46518;48.842;8.926;2023-05-16T12:25:28;97091.69;;;11.30;96.44
1401;BME280;46518;48.842;8.926;2023-05-16T12:27:59;97101.59;;;11.18;96.81
1401;BME280;46518;48.842;8.926;2023-05-16T12:30:29;97102.78;;;11.05;95.38
1401;BME280;46518;48.842;8.926;2023-05-16T12:32:58;97104.38;;;11.06;95.27
1401;BME280;46518;48.842;8.926;2023-05-16T12:35:34;97116.44;;;11.02;95.27
1401;BME280;46518;48.842;8.926;2023-05-16T12:38:03;97122.84;;;10.84;95.70
1401;BME280;46518;48.842;8.926;2023-05-16T12:40:31;97116.19;;;10.76;94.77
1401;BME280;46518;48.842;8.926;2023-05-16T12:42:59;97126.22;;;10.79;96.86
1401;BME280;46518;48.842;8.926;2023-05-16T12:45:28;97125.03;;;10.92;96.66
1401;BME280;46518;48.842;8.926;2023-05-16T12:48:03;97126.78;;;10.82;93.19
1401;BME280;46518;48.842;8.926;2023-05-16T12:50:34;97124.44;;;10.63;92.10
1401;BME280;46518;48.842;8.926;2023-05-16T12:53:02;97131.19;;;10.54;92.46
1401;BME280;46518;48.842;8.926;2023-05-16T12:55:31;97118.63;;;10.61;92.14
1401;BME280;46518;48.842;8.926;2023-05-16T12:57:59;97126.09;;;10.47;91.81
1401;BME280;46518;48.842;8.926;2023-05-16T13:00:29;97116.78;;;10.40;91.56
1401;BME280;46518;48.842;8.926;2023-05-16T13:02:58;97124.06;;;10.54;90.69
1401;BME280;46518;48.842;8.926;2023-05-16T13:05:27;97122.44;;;10.48;91.42
1401;BME280;46518;48.842;8.926;2023-05-16T13:07:57;97120.72;;;10.59;91.05
1401;BME280;46518;48.842;8.926;2023-05-16T13:10:25;97123.41;;;10.64;91.13
1401;BME280;46518;48.842;8.926;2023-05-16T13:12:54;97125.78;;;10.66;91.14
1401;BME280;46518;48.842;8.926;2023-05-16T13:15:24;97123.03;;;10.77;90.60
1401;BME280;46518;48.842;8.926;2023-05-16T13:17:53;97119.44;;;10.84;90.85